Time;durP1;ratioP1;P1;durP2;ratioP2;P2;SDS_P1;SDS_P2;PMS_P1;PMS_P2;Temp;Humidity;BMP_temperature;BMP_pressure;BME280_temperature;BME280_humidity;BME280_pressure;Samples;Min_cycle;Max_cycle;Signal;HPM_P1;HPM_P2
2022/03/05 00:01:15;;;;;;;;;;;;;;;5.78;66.02;100184.28;5013122;28;19928;-66
2022/03/05 00:03:58;;;;;;;;;;;;;;;5.77;66.48;100185.09;5017394;28;19924;-65
2022/03/05 00:06:42;;;;;;;;;;;;;;;5.76;66.11;100170.50;5017036;28;20280;-66
2022/03/05 00:09:26;;;;;;;;;;;;;;;5.77;65.97;100172.22;5017155;28;19924;-66
2022/03/05 00:12:10;;;;;;;;;;;;;;;5.76;65.90;100181.66;5016866;28;19963;-66
2022/03/05 00:14:54;;;;;;;;;;;;;;;5.76;65.93;100178.22;5016770;28;20316;-66
2022/03/05 00:17:38;;;;;;;;;;;;;;;5.75;66.32;100184.19;5017170;28;19926;-67
2022/03/05 00:20:23;;;;;;;;;;;;;;;5.76;65.85;100180.78;5016938;28;19963;-67
2022/03/05 00:23:07;;;;;;;;;;;;;;;5.75;65.85;100177.31;5016136;28;19967;-66
2022/03/05 00:25:51;;;;;;;;;;;;;;;5.75;65.80;100176.47;5016335;28;19925;-66
2022/03/05 00:28:34;;;;;;;;;;;;;;;5.73;65.79;100172.94;5015267;28;20028;-66
2022/03/05 00:31:18;;;;;;;;;;;;;;;5.69;66.27;100182.22;5015190;28;20013;-65
2022/03/05 00:34:02;;;;;;;;;;;;;;;5.68;65.62;100177.94;5016158;28;19968;-66
2022/03/05 00:36:46;;;;;;;;;;;;;;;5.68;65.56;100182.19;5016947;28;19924;-66
2022/03/05 00:39:31;;;;;;;;;;;;;;;5.66;65.98;100181.25;5016838;28;19967;-66
2022/03/05 00:42:14;;;;;;;;;;;;;;;5.64;65.65;100183.75;5015827;28;20343;-66
2022/03/05 00:44:58;;;;;;;;;;;;;;;5.65;65.44;100177.81;5016316;28;20283;-66
2022/03/05 00:47:42;;;;;;;;;;;;;;;5.64;65.39;100183.75;5016481;28;20288;-66
2022/03/05 00:50:26;;;;;;;;;;;;;;;5.64;65.94;100182.06;5016040;28;19972;-66
2022/03/05 00:53:11;;;;;;;;;;;;;;;5.63;65.34;100176.88;5016591;28;19924;-66
2022/03/05 00:55:56;;;;;;;;;;;;;;;5.61;65.42;100181.94;5015591;28;19971;-66
2022/03/05 00:58:40;;;;;;;;;;;;;;;5.61;65.64;100186.22;5016096;28;20070;-65
2022/03/05 01:01:24;;;;;;;;;;;;;;;5.61;65.39;100181.94;5016197;28;19940;-67
2022/03/05 01:04:07;;;;;;;;;;;;;;;5.63;65.63;100180.31;5016164;28;20027;-65
2022/03/05 01:06:51;;;;;;;;;;;;;;;5.62;65.33;100182.81;5016249;28;20388;-66
2022/03/05 01:09:35;;;;;;;;;;;;;;;5.61;65.73;100181.94;5015774;28;19975;-66
2022/03/05 01:12:19;;;;;;;;;;;;;;;5.61;65.32;100178.50;5015425;28;20412;-66
2022/03/05 01:15:04;;;;;;;;;;;;;;;5.60;65.15;100176.75;5015293;28;19923;-66
2022/03/05 01:17:48;;;;;;;;;;;;;;;5.61;65.79;100178.50;5015160;28;19924;-66
2022/03/05 01:20:32;;;;;;;;;;;;;;;5.60;65.95;100172.50;5015916;28;19980;-65
2022/03/05 01:23:15;;;;;;;;;;;;;;;5.58;65.51;100181.84;5015655;28;19963;-66
2022/03/05 01:25:59;;;;;;;;;;;;;;;5.54;65.04;100173.94;5015458;28;20351;-66
2022/03/05 01:28:43;;;;;;;;;;;;;;;5.53;65.10;100179.91;5015869;28;19966;-66
2022/03/05 01:31:27;;;;;;;;;;;;;;;5.52;65.25;100170.44;5014765;28;19940;-65
2022/03/05 01:34:11;;;;;;;;;;;;;;;5.51;65.22;100166.97;5015127;28;20019;-66
2022/03/05 01:36:55;;;;;;;;;;;;;;;5.48;65.19;100167.75;5015706;28;20280;-66
2022/03/05 01:39:41;;;;;;;;;;;;;;;5.48;65.33;100172.91;5014579;28;19967;-66
2022/03/05 01:42:25;;;;;;;;;;;;;;;5.47;64.96;100170.25;5014806;28;19943;-66
2022/03/05 01:45:12;;;;;;;;;;;;;;;5.44;64.84;100168.44;5015091;28;19968;-66
2022/03/05 01:47:55;;;;;;;;;;;;;;;5.40;64.83;100160.56;5015252;28;19925;-66
2022/03/05 01:50:40;;;;;;;;;;;;;;;5.42;65.17;100159.78;5015405;28;19924;-66
2022/03/05 01:53:24;;;;;;;;;;;;;;;5.43;64.86;100168.41;5015133;28;19923;-66
2022/03/05 01:56:07;;;;;;;;;;;;;;;5.45;65.38;100175.34;5014794;28;19924;-66
2022/03/05 01:58:52;;;;;;;;;;;;;;;5.48;65.21;100179.72;5014900;28;20463;-66
2022/03/05 02:01:36;;;;;;;;;;;;;;;5.51;65.57;100178.97;5014498;28;20016;-66
2022/03/05 02:04:20;;;;;;;;;;;;;;;5.52;65.59;100183.31;5014810;28;19964;-65
2022/03/05 02:07:04;;;;;;;;;;;;;;;5.52;65.25;100179.03;5015012;28;19924;-65
2022/03/05 02:09:48;;;;;;;;;;;;;;;5.53;65.27;100185.06;5015158;28;19971;-66
2022/03/05 02:12:32;;;;;;;;;;;;;;;5.54;65.64;100179.06;5014410;28;20403;-66
2022/03/05 02:15:16;;;;;;;;;;;;;;;5.56;65.21;100174.88;5013846;28;19968;-66
2022/03/05 02:18:01;;;;;;;;;;;;;;;5.57;65.19;100177.50;5014951;28;19923;-65
2022/03/05 02:20:44;;;;;;;;;;;;;;;5.58;65.34;100184.41;5014071;28;19968;-66
2022/03/05 02:23:28;;;;;;;;;;;;;;;5.59;65.62;100183.59;5014645;28;19971;-66
2022/03/05 02:26:12;;;;;;;;;;;;;;;5.58;66.23;100179.28;5014049;28;19960;-66
2022/03/05 02:28:56;;;;;;;;;;;;;;;5.60;65.54;100182.78;5014123;28;20010;-65
2022/03/05 02:31:40;;;;;;;;;;;;;;;5.61;65.93;100183.66;5014350;28;20279;-66
2022/03/05 02:34:24;;;;;;;;;;;;;;;5.62;66.28;100190.53;5014888;28;19971;-66
2022/03/05 02:37:10;;;;;;;;;;;;;;;5.61;66.03;100187.06;5014775;28;19979;-65
2022/03/05 02:39:53;;;;;;;;;;;;;;;5.61;65.78;100188.78;5014535;28;19971;-65
2022/03/05 02:42:37;;;;;;;;;;;;;;;5.63;66.14;100193.16;5014439;28;19987;-66
2022/03/05 02:45:21;;;;;;;;;;;;;;;5.65;66.20;100188.09;5014319;28;19924;-66
2022/03/05 02:48:06;;;;;;;;;;;;;;;5.63;65.89;100190.59;5014131;28;20013;-66
2022/03/05 02:50:50;;;;;;;;;;;;;;;5.64;66.42;100186.34;5014137;28;20288;-66
2022/03/05 02:53:35;;;;;;;;;;;;;;;5.64;65.90;100186.34;5013304;28;19928;-66
2022/03/05 02:56:19;;;;;;;;;;;;;;;5.63;65.81;100188.00;5014039;28;19971;-66
2022/03/05 02:59:03;;;;;;;;;;;;;;;5.64;65.99;100186.34;5014585;28;19940;-66
2022/03/05 03:01:47;;;;;;;;;;;;;;;5.62;66.16;100182.81;5014368;28;19924;-66
2022/03/05 03:04:31;;;;;;;;;;;;;;;5.62;66.33;100186.25;5012645;28;19940;-66
2022/03/05 03:07:15;;;;;;;;;;;;;;;5.62;65.97;100183.69;5013095;28;20434;-66
2022/03/05 03:09:59;;;;;;;;;;;;;;;5.62;66.19;100190.53;5013636;28;19923;-66
2022/03/05 03:12:43;;;;;;;;;;;;;;;5.61;66.41;100192.22;5012946;28;20280;-66
2022/03/05 03:15:27;;;;;;;;;;;;;;;5.63;66.53;100189.72;5013863;28;19924;-66
2022/03/05 03:18:11;;;;;;;;;;;;;;;5.61;66.06;100192.22;5013768;28;19924;-66
2022/03/05 03:20:54;;;;;;;;;;;;;;;5.60;66.38;100192.16;5012587;28;19968;-66
2022/03/05 03:23:38;;;;;;;;;;;;;;;5.57;65.76;100190.38;5013478;28;19924;-66
2022/03/05 03:26:22;;;;;;;;;;;;;;;5.56;66.51;100182.59;5013920;28;19924;-66
2022/03/05 03:29:06;;;;;;;;;;;;;;;5.55;65.74;100189.44;5013916;28;19980;-65
2022/03/05 03:31:50;;;;;;;;;;;;;;;5.55;65.64;100197.16;5013311;28;20006;-66
2022/03/05 03:34:34;;;;;;;;;;;;;;;5.56;65.90;100191.19;5013574;28;19979;-66
2022/03/05 03:37:18;;;;;;;;;;;;;;;5.56;66.08;100187.72;5014606;28;20430;-65
2022/03/05 03:40:03;;;;;;;;;;;;;;;5.55;65.91;100196.25;5017173;28;20399;-66
2022/03/05 03:42:48;;;;;;;;;;;;;;;5.55;65.82;100193.69;5017772;28;20349;-66
2022/03/05 03:45:32;;;;;;;;;;;;;;;5.55;65.96;100186.88;5017925;28;19924;-66
2022/03/05 03:48:16;;;;;;;;;;;;;;;5.54;66.60;100187.69;5017145;28;20012;-66
2022/03/05 03:51:00;;;;;;;;;;;;;;;5.55;66.16;100180.81;5017504;28;19924;-65
2022/03/05 03:53:44;;;;;;;;;;;;;;;5.55;66.02;100184.28;5016361;28;20301;-65
2022/03/05 03:56:28;;;;;;;;;;;;;;;5.54;66.62;100187.69;5016961;28;19925;-66
2022/03/05 03:59:12;;;;;;;;;;;;;;;5.54;65.93;100186.78;5017224;28;20339;-66
2022/03/05 04:01:56;;;;;;;;;;;;;;;5.55;66.24;100191.09;5016135;28;19963;-66
2022/03/05 04:04:41;;;;;;;;;;;;;;;5.55;66.13;100185.97;5016184;28;19976;-66
2022/03/05 04:10:28;;;;;;;;;;;;;;;5.53;66.26;100188.50;5016719;28;20016;-66
2022/03/05 04:13:12;;;;;;;;;;;;;;;5.53;66.35;100187.63;5016059;28;20392;-66
2022/03/05 04:15:56;;;;;;;;;;;;;;;5.52;66.83;100191.00;5016600;28;20503;-66
2022/03/05 04:18:41;;;;;;;;;;;;;;;5.52;66.95;100194.44;5017079;28;20388;-66
2022/03/05 04:21:25;;;;;;;;;;;;;;;5.52;66.19;100193.59;5016816;28;20013;-66
2022/03/05 04:24:09;;;;;;;;;;;;;;;5.52;66.61;100196.16;5016660;28;20451;-66
2022/03/05 04:26:53;;;;;;;;;;;;;;;5.52;66.29;100196.16;5016993;28;20391;-66
2022/03/05 04:29:36;;;;;;;;;;;;;;;5.51;66.50;100202.97;5016757;28;20276;-65
2022/03/05 04:32:20;;;;;;;;;;;;;;;5.51;66.63;100199.53;5016542;28;19925;-66
2022/03/05 04:35:04;;;;;;;;;;;;;;;5.51;66.39;100202.13;5016354;28;20391;-65
2022/03/05 04:37:50;;;;;;;;;;;;;;;5.52;66.87;100201.28;5016835;28;19963;-65
2022/03/05 04:40:35;;;;;;;;;;;;;;;5.51;66.39;100204.69;5015417;28;19991;-65
2022/03/05 04:43:19;;;;;;;;;;;;;;;5.49;66.79;100200.34;5015640;28;19971;-67
2022/03/05 04:46:03;;;;;;;;;;;;;;;5.48;66.45;100215.69;5016526;28;19924;-66
2022/03/05 04:48:47;;;;;;;;;;;;;;;5.49;66.76;100212.31;5015237;28;20056;-65
2022/03/05 04:51:30;;;;;;;;;;;;;;;5.47;66.40;100212.28;5015875;28;19928;-66
2022/03/05 04:54:14;;;;;;;;;;;;;;;5.47;66.59;100212.28;5016352;28;19944;-66
2022/03/05 04:56:58;;;;;;;;;;;;;;;5.47;66.84;100219.09;5016224;28;20391;-66
2022/03/05 04:59:43;;;;;;;;;;;;;;;5.45;66.90;100206.19;5015722;28;19965;-66
2022/03/05 05:02:27;;;;;;;;;;;;;;;5.45;66.60;100219.03;5015566;28;19964;-66
2022/03/05 05:05:11;;;;;;;;;;;;;;;5.45;67.23;100221.63;5016054;28;19924;-66
2022/03/05 05:07:55;;;;;;;;;;;;;;;5.43;67.07;100218.09;5016001;28;19929;-65
2022/03/05 05:10:40;;;;;;;;;;;;;;;5.43;66.89;100225.81;5015633;28;19980;-65
2022/03/05 05:13:23;;;;;;;;;;;;;;;5.42;66.63;100221.47;5015777;28;20052;-66
2022/03/05 05:16:08;;;;;;;;;;;;;;;5.41;66.94;100222.31;5015403;28;19923;-66
2022/03/05 05:21:56;;;;;;;;;;;;;;;5.40;67.11;100217.97;5015995;28;19928;-66
2022/03/05 05:24:40;;;;;;;;;;;;;;;5.40;66.96;100222.25;5014922;28;20431;-66
2022/03/05 05:27:24;;;;;;;;;;;;;;;5.39;66.80;100223.94;5015494;28;19959;-65
2022/03/05 05:30:08;;;;;;;;;;;;;;;5.38;66.70;100229.03;5015322;28;20410;-65
2022/03/05 05:32:52;;;;;;;;;;;;;;;5.37;67.34;100230.72;5015879;28;20281;-66
2022/03/05 05:35:36;;;;;;;;;;;;;;;5.37;66.95;100227.25;5014304;28;19962;-66
2022/03/05 05:38:20;;;;;;;;;;;;;;;5.36;66.50;100226.41;5015415;28;19924;-65
2022/03/05 05:41:04;;;;;;;;;;;;;;;5.36;66.70;100231.53;5014263;28;20007;-66
2022/03/05 05:43:48;;;;;;;;;;;;;;;5.36;66.67;100226.41;5015418;28;20019;-66
2022/03/05 05:46:32;;;;;;;;;;;;;;;5.36;66.90;100228.97;5015111;28;19924;-65
2022/03/05 05:49:16;;;;;;;;;;;;;;;5.36;66.89;100228.06;5015072;28;20341;-65
2022/03/05 05:52:00;;;;;;;;;;;;;;;5.34;66.97;100223.75;5015160;28;20321;-66
2022/03/05 05:54:45;;;;;;;;;;;;;;;5.33;66.93;100226.28;5014511;28;20055;-66
2022/03/05 05:57:29;;;;;;;;;;;;;;;5.32;67.44;100232.22;5014116;28;20032;-65
2022/03/05 06:00:13;;;;;;;;;;;;;;;5.31;67.25;100235.59;5014218;28;19943;-66
2022/03/05 06:02:57;;;;;;;;;;;;;;;5.31;67.18;100235.59;5015375;28;20483;-66
2022/03/05 06:05:41;;;;;;;;;;;;;;;5.31;66.98;100236.47;5014468;28;20277;-66
2022/03/05 06:08:25;;;;;;;;;;;;;;;5.30;67.38;100239.00;5015004;28;20389;-66
2022/03/05 06:11:09;;;;;;;;;;;;;;;5.30;66.88;100232.16;5014886;28;19924;-66
2022/03/05 06:13:53;;;;;;;;;;;;;;;5.29;66.89;100238.13;5014393;28;19924;-66
2022/03/05 06:16:37;;;;;;;;;;;;;;;5.27;67.52;100247.47;5014803;28;20023;-67
2022/03/05 06:19:21;;;;;;;;;;;;;;;5.27;67.07;100250.03;5014513;28;20463;-66
2022/03/05 06:22:04;;;;;;;;;;;;;;;5.26;67.70;100243.13;5014500;28;19928;-66
2022/03/05 06:24:49;;;;;;;;;;;;;;;5.27;67.64;100241.44;5014377;28;19940;-65
2022/03/05 06:27:32;;;;;;;;;;;;;;;5.26;66.91;100243.13;5014932;28;20379;-66
2022/03/05 06:30:16;;;;;;;;;;;;;;;5.25;66.88;100237.91;5014382;28;19924;-66
2022/03/05 06:33:00;;;;;;;;;;;;;;;5.23;66.94;100236.97;5014177;28;19979;-66
2022/03/05 06:35:44;;;;;;;;;;;;;;;5.22;67.15;100230.06;5014261;28;19925;-66
2022/03/05 06:38:28;;;;;;;;;;;;;;;5.21;67.00;100236.06;5014431;28;19984;-65
2022/03/05 06:41:12;;;;;;;;;;;;;;;5.20;66.75;100239.44;5013340;28;20012;-66
2022/03/05 06:43:56;;;;;;;;;;;;;;;5.18;66.75;100237.69;5012943;28;20439;-66
2022/03/05 06:46:40;;;;;;;;;;;;;;;5.17;67.67;100233.38;5013872;28;20005;-66
2022/03/05 06:49:24;;;;;;;;;;;;;;;5.16;67.01;100234.19;5014168;28;19924;-66
2022/03/05 06:52:16;;;;;;;;;;;;;;;5.14;66.93;100235.81;5013804;28;19924;-66
2022/03/05 06:55:01;;;;;;;;;;;;;;;5.12;66.93;100234.00;5013260;28;19924;-66
2022/03/05 06:57:45;;;;;;;;;;;;;;;5.09;67.07;100241.56;5014601;28;19924;-66
2022/03/05 07:00:28;;;;;;;;;;;;;;;5.07;66.95;100235.47;5013779;28;20292;-66
2022/03/05 07:03:12;;;;;;;;;;;;;;;5.07;67.32;100246.63;5014827;28;19936;-67
2022/03/05 07:05:56;;;;;;;;;;;;;;;5.06;67.05;100244.00;5013619;28;19963;-65
2022/03/05 07:08:45;;;;;;;;;;;;;;;5.03;67.42;100237.91;5014465;28;19924;-65
2022/03/05 07:11:29;;;;;;;;;;;;;;;5.01;66.50;100236.09;5014669;28;19925;-66
2022/03/05 07:14:13;;;;;;;;;;;;;;;4.99;67.16;100232.59;5017840;28;19924;-65
2022/03/05 07:16:57;;;;;;;;;;;;;;;4.97;67.09;100234.22;5017841;28;20495;-66
2022/03/05 07:19:40;;;;;;;;;;;;;;;4.95;67.24;100236.75;5018374;28;19924;-66
2022/03/05 07:22:24;;;;;;;;;;;;;;;4.97;66.76;100244.50;5017381;28;19925;-66
2022/03/05 07:25:09;;;;;;;;;;;;;;;4.95;66.86;100238.41;5017880;28;20339;-66
2022/03/05 07:27:53;;;;;;;;;;;;;;;4.95;66.86;100240.97;5017248;28;19967;-66
2022/03/05 07:30:37;;;;;;;;;;;;;;;4.95;66.96;100243.56;5017962;28;19967;-67
2022/03/05 07:33:22;;;;;;;;;;;;;;;4.95;67.11;100248.69;5016901;28;20284;-66
2022/03/05 07:36:06;;;;;;;;;;;;;;;4.92;66.35;100249.44;5016675;28;20464;-66
2022/03/05 07:38:51;;;;;;;;;;;;;;;4.88;66.27;100248.44;5017540;28;19924;-65
2022/03/05 07:41:36;;;;;;;;;;;;;;;4.86;66.98;100257.78;5016597;28;19924;-65
2022/03/05 07:44:20;;;;;;;;;;;;;;;4.87;67.01;100261.19;5017400;28;20293;-65
2022/03/05 07:47:04;;;;;;;;;;;;;;;4.89;66.65;100269.84;5018114;28;19955;-66
2022/03/05 07:49:48;;;;;;;;;;;;;;;4.88;67.27;100271.56;5017722;28;19964;-65
2022/03/05 07:52:32;;;;;;;;;;;;;;;4.90;67.12;100274.19;5017379;28;19923;-66
2022/03/05 07:55:16;;;;;;;;;;;;;;;4.93;67.32;100283.69;5017654;28;19924;-65
2022/03/05 07:58:00;;;;;;;;;;;;;;;4.93;67.21;100293.97;5016204;28;20391;-65
2022/03/05 08:00:44;;;;;;;;;;;;;;;4.91;66.88;100283.66;5017081;28;19923;-66
2022/03/05 08:03:28;;;;;;;;;;;;;;;4.91;66.70;100291.34;5017139;28;20007;-67
2022/03/05 08:06:12;;;;;;;;;;;;;;;4.90;66.70;100293.88;5016795;28;19924;-66
2022/03/05 08:08:58;;;;;;;;;;;;;;;4.91;66.85;100295.59;5016697;28;20036;-65
2022/03/05 08:11:42;;;;;;;;;;;;;;;4.90;66.25;100304.16;5015694;28;19968;-65
2022/03/05 08:14:26;;;;;;;;;;;;;;;4.87;66.21;100298.06;5016870;28;19923;-66
2022/03/05 08:17:11;;;;;;;;;;;;;;;4.87;67.06;100302.31;5016801;28;20272;-66
2022/03/05 08:19:55;;;;;;;;;;;;;;;4.85;66.62;100302.25;5016486;28;20438;-66
2022/03/05 08:22:39;;;;;;;;;;;;;;;4.86;66.18;100304.00;5017081;28;19925;-65
2022/03/05 08:25:24;;;;;;;;;;;;;;;4.86;66.35;100305.69;5016907;28;19924;-65
2022/03/05 08:28:08;;;;;;;;;;;;;;;4.86;66.99;100308.25;5017114;28;19924;-65
2022/03/05 08:30:52;;;;;;;;;;;;;;;4.84;66.49;100310.75;5016807;28;19925;-66
2022/03/05 08:33:35;;;;;;;;;;;;;;;4.85;66.41;100306.47;5016734;28;19928;-66
2022/03/05 08:36:20;;;;;;;;;;;;;;;4.85;66.32;100311.63;5016821;28;19940;-65
2022/03/05 08:39:03;;;;;;;;;;;;;;;4.84;66.28;100305.63;5016095;28;19925;-65
2022/03/05 08:41:47;;;;;;;;;;;;;;;4.87;66.88;100302.31;5016261;28;19939;-65
2022/03/05 08:44:31;;;;;;;;;;;;;;;4.88;67.05;100299.81;5016440;28;19971;-65
2022/03/05 08:47:15;;;;;;;;;;;;;;;4.89;66.26;100300.69;5016728;28;19976;-65
2022/03/05 08:49:59;;;;;;;;;;;;;;;4.91;66.25;100305.88;5015551;28;19940;-64
2022/03/05 08:52:43;;;;;;;;;;;;;;;4.93;66.04;100306.81;5016719;28;19924;-65
2022/03/05 08:55:27;;;;;;;;;;;;;;;4.96;65.89;100307.84;5015606;28;20028;-65
2022/03/05 08:58:22;;;;;;;;;;;;;;;4.99;65.86;100302.81;5016621;28;20020;-65
2022/03/05 09:01:06;;;;;;;;;;;;;;;5.06;66.09;100305.66;5015997;28;19976;-65
2022/03/05 09:03:51;;;;;;;;;;;;;;;5.08;66.23;100307.47;5015101;28;20288;-64
2022/03/05 09:06:35;;;;;;;;;;;;;;;5.13;65.55;100307.69;5016377;28;19928;-66
2022/03/05 09:09:18;;;;;;;;;;;;;;;5.16;66.07;100300.97;5016085;28;19925;-65
2022/03/05 09:12:03;;;;;;;;;;;;;;;5.20;65.88;100303.69;5015866;28;19963;-65
2022/03/05 09:14:48;;;;;;;;;;;;;;;5.23;65.77;100307.25;5015172;28;19925;-65
2022/03/05 09:17:32;;;;;;;;;;;;;;;5.28;65.37;100310.91;5015593;28;19940;-65
2022/03/05 09:20:17;;;;;;;;;;;;;;;5.31;66.53;100312.72;5016062;28;19979;-65
2022/03/05 09:23:01;;;;;;;;;;;;;;;5.32;65.59;100307.63;5015501;28;19968;-65
2022/03/05 09:25:45;;;;;;;;;;;;;;;5.36;66.44;100313.78;5014901;28;19964;-65
2022/03/05 09:28:29;;;;;;;;;;;;;;;5.38;65.56;100314.72;5015548;28;20291;-65
2022/03/05 09:31:13;;;;;;;;;;;;;;;5.40;65.64;100313.09;5015610;28;20347;-64
2022/03/05 09:33:57;;;;;;;;;;;;;;;5.42;65.60;100308.88;5015076;28;19925;-65
2022/03/05 09:36:41;;;;;;;;;;;;;;;5.45;65.91;100310.72;5015470;28;19925;-65
2022/03/05 09:39:25;;;;;;;;;;;;;;;5.49;65.58;100312.59;5015889;28;19968;-65
2022/03/05 09:42:09;;;;;;;;;;;;;;;5.50;65.90;100311.78;5015163;28;19925;-65
2022/03/05 09:44:53;;;;;;;;;;;;;;;5.51;66.07;100310.97;5015256;28;19939;-65
2022/03/05 09:47:38;;;;;;;;;;;;;;;5.56;65.99;100317.19;5014995;28;19924;-65
2022/03/05 09:50:24;;;;;;;;;;;;;;;5.58;65.10;100312.97;5013973;28;19964;-65
2022/03/05 09:53:09;;;;;;;;;;;;;;;5.61;65.34;100304.50;5015412;28;19924;-64
2022/03/05 09:55:52;;;;;;;;;;;;;;;5.62;65.18;100313.97;5015086;28;19940;-64
2022/03/05 09:58:36;;;;;;;;;;;;;;;5.61;65.51;100314.78;5015381;28;20083;-65
2022/03/05 10:01:20;;;;;;;;;;;;;;;5.65;65.31;100316.66;5014436;28;19924;-65
2022/03/05 10:04:04;;;;;;;;;;;;;;;5.67;65.29;100316.72;5015322;28;20024;-65
2022/03/05 10:07:07;;;;;;;;;;;;;;;5.64;65.15;100313.22;5015275;28;20310;-65
2022/03/05 10:10:05;;;;;;;;;;;;;;;5.66;65.17;100307.25;5013962;28;19925;-65
2022/03/05 10:12:50;;;;;;;;;;;;;;;5.64;65.43;100313.22;5013481;28;19924;-64
2022/03/05 10:15:35;;;;;;;;;;;;;;;5.68;65.50;100313.34;5013891;28;20296;-65
2022/03/05 10:18:27;;;;;;;;;;;;;;;5.70;65.96;100316.84;5014630;28;19924;-64
2022/03/05 10:21:11;;;;;;;;;;;;;;;5.71;65.29;100313.47;5014104;28;19924;-65
2022/03/05 10:24:05;;;;;;;;;;;;;;;5.72;65.35;100312.66;5014247;28;20348;-64
2022/03/05 10:26:50;;;;;;;;;;;;;;;5.72;65.69;100318.66;5014633;28;20013;-65
2022/03/05 10:29:36;;;;;;;;;;;;;;;5.75;65.59;100312.78;5014908;28;19924;-64
2022/03/05 10:32:20;;;;;;;;;;;;;;;5.73;65.72;100315.28;5013504;28;19924;-66
2022/03/05 10:35:05;;;;;;;;;;;;;;;5.74;65.19;100305.88;5013621;28;20400;-65
2022/03/05 10:37:52;;;;;;;;;;;;;;;5.74;65.48;100311.03;5014383;28;19967;-65
2022/03/05 10:40:36;;;;;;;;;;;;;;;5.74;65.97;100305.88;5014205;28;20351;-65
2022/03/05 10:43:20;;;;;;;;;;;;;;;5.75;65.86;100298.22;5013568;28;20323;-65
2022/03/05 10:46:04;;;;;;;;;;;;;;;5.74;65.55;100301.59;5014187;28;19924;-65
2022/03/05 10:48:48;;;;;;;;;;;;;;;5.75;65.46;100298.22;5014170;28;20007;-65
2022/03/05 10:51:32;;;;;;;;;;;;;;;5.75;65.34;100298.22;5014059;28;19979;-65
2022/03/05 10:54:26;;;;;;;;;;;;;;;5.78;65.93;100300.91;5014431;28;19928;-65
2022/03/05 10:57:12;;;;;;;;;;;;;;;5.78;65.75;100300.91;5013549;28;19968;-65
2022/03/05 11:00:05;;;;;;;;;;;;;;;5.80;65.71;100293.25;5013033;28;19928;-65
2022/03/05 11:02:52;;;;;;;;;;;;;;;5.83;65.78;100302.78;5012719;28;19975;-65
2022/03/05 11:05:36;;;;;;;;;;;;;;;5.86;65.67;100300.31;5013169;28;20296;-65
2022/03/05 11:08:20;;;;;;;;;;;;;;;5.88;65.85;100298.69;5014005;28;19998;-64
2022/03/05 11:11:04;;;;;;;;;;;;;;;5.87;65.65;100292.69;5013838;28;19925;-65
2022/03/05 11:13:49;;;;;;;;;;;;;;;5.88;65.26;100291.88;5013857;28;20031;-65
2022/03/05 11:16:33;;;;;;;;;;;;;;;5.88;66.02;100293.53;5014217;28;19924;-65
2022/03/05 11:19:17;;;;;;;;;;;;;;;5.86;65.45;100287.44;5013392;28;19924;-65
2022/03/05 11:22:01;;;;;;;;;;;;;;;5.87;65.57;100284.06;5013412;28;19924;-65
2022/03/05 11:24:45;;;;;;;;;;;;;;;5.88;65.31;100283.25;5013133;28;19927;-65
2022/03/05 11:27:29;;;;;;;;;;;;;;;5.87;65.27;100282.38;5013914;28;19987;-65
2022/03/05 11:30:13;;;;;;;;;;;;;;;5.89;65.34;100278.19;5012981;28;19923;-65
2022/03/05 11:32:57;;;;;;;;;;;;;;;5.91;65.15;100281.69;5013523;28;19924;-66
2022/03/05 11:35:43;;;;;;;;;;;;;;;5.93;65.75;100281.75;5013156;28;19924;-65
2022/03/05 11:38:39;;;;;;;;;;;;;;;5.94;65.46;100283.50;5013937;28;20293;-65
2022/03/05 11:41:26;;;;;;;;;;;;;;;5.93;65.43;100276.59;5013975;28;19939;-66
2022/03/05 11:44:14;;;;;;;;;;;;;;;5.92;65.68;100275.69;5012726;28;19968;-65
2022/03/05 11:47:17;;;;;;;;;;;;;;;5.93;65.78;100277.47;5013598;28;19967;-65
2022/03/05 11:50:01;;;;;;;;;;;;;;;5.93;65.82;100266.31;5013472;28;19925;-65
2022/03/05 11:52:46;;;;;;;;;;;;;;;5.93;65.67;100274.03;5013294;28;20395;-65
2022/03/05 11:55:31;;;;;;;;;;;;;;;5.92;65.83;100275.69;5012571;28;20399;-66
2022/03/05 11:58:16;;;;;;;;;;;;;;;5.92;65.77;100277.41;5014892;28;20426;-65
2022/03/05 12:01:20;;;;;;;;;;;;;;;5.92;65.81;100274.84;5016718;28;19980;-65
2022/03/05 12:04:24;;;;;;;;;;;;;;;5.96;65.70;100281.88;5016081;28;19924;-65
2022/03/05 12:07:13;;;;;;;;;;;;;;;6.00;65.59;100270.03;5016894;28;19924;-65
2022/03/05 12:09:57;;;;;;;;;;;;;;;6.01;65.57;100269.22;5017171;28;19940;-66
2022/03/05 12:12:52;;;;;;;;;;;;;;;5.99;66.11;100266.56;5016166;28;19924;-66
2022/03/05 12:15:44;;;;;;;;;;;;;;;5.98;65.83;100269.94;5017314;28;19924;-65
2022/03/05 12:18:28;;;;;;;;;;;;;;;5.99;65.73;100269.13;5016848;28;20307;-65
2022/03/05 12:21:18;;;;;;;;;;;;;;;5.98;65.79;100267.38;5017359;28;20327;-66
2022/03/05 12:24:05;;;;;;;;;;;;;;;6.01;65.59;100269.22;5017283;28;20288;-65
2022/03/05 12:26:56;;;;;;;;;;;;;;;6.02;65.68;100261.53;5016254;28;20044;-65
2022/03/05 12:29:49;;;;;;;;;;;;;;;6.02;65.45;100261.53;5016318;28;20292;-65
2022/03/05 12:32:34;;;;;;;;;;;;;;;6.01;65.81;100251.19;5016004;28;19972;-65
2022/03/05 12:35:19;;;;;;;;;;;;;;;6.02;65.78;100251.25;5017007;28;20431;-66
2022/03/05 12:38:03;;;;;;;;;;;;;;;6.07;65.33;100248.88;5016699;28;19955;-65
2022/03/05 12:40:47;;;;;;;;;;;;;;;6.07;65.73;100249.72;5016564;28;19924;-65
2022/03/05 12:43:31;;;;;;;;;;;;;;;6.08;65.63;100250.59;5016600;28;19971;-65
2022/03/05 12:46:15;;;;;;;;;;;;;;;6.07;65.74;100248.88;5015487;28;19928;-65
2022/03/05 12:49:03;;;;;;;;;;;;;;;6.05;65.63;100250.50;5016363;28;19940;-65
2022/03/05 12:51:47;;;;;;;;;;;;;;;6.04;65.30;100249.59;5015472;28;19963;-65
2022/03/05 12:54:31;;;;;;;;;;;;;;;6.02;66.04;100240.94;5016195;28;20351;-65
2022/03/05 12:57:15;;;;;;;;;;;;;;;6.02;65.94;100237.50;5015670;28;19971;-65
2022/03/05 13:00:05;;;;;;;;;;;;;;;6.02;66.00;100240.09;5016537;28;20387;-65
2022/03/05 13:02:49;;;;;;;;;;;;;;;6.02;65.62;100240.94;5016366;28;20051;-65
2022/03/05 13:05:34;;;;;;;;;;;;;;;6.01;65.86;100240.91;5015170;28;20032;-65
2022/03/05 13:08:18;;;;;;;;;;;;;;;5.99;65.87;100239.94;5016237;28;19940;-66
2022/03/05 13:11:13;;;;;;;;;;;;;;;5.99;65.57;100229.63;5013954;28;19964;-66
2022/03/05 13:13:58;;;;;;;;;;;;;;;5.98;66.03;100236.50;5015652;28;19940;-65
2022/03/05 13:16:42;;;;;;;;;;;;;;;5.98;65.79;100227.88;5015292;28;19924;-65
2022/03/05 13:19:26;;;;;;;;;;;;;;;5.99;65.45;100239.94;5016130;28;19929;-65
2022/03/05 13:22:10;;;;;;;;;;;;;;;6.00;65.64;100232.28;5014554;28;19924;-65
2022/03/05 13:24:54;;;;;;;;;;;;;;;6.02;65.45;100233.22;5015667;28;20392;-66
2022/03/05 13:27:37;;;;;;;;;;;;;;;6.01;66.08;100238.31;5015981;28;20407;-65
2022/03/05 13:30:26;;;;;;;;;;;;;;;6.00;65.99;100228.84;5014902;28;20024;-65
2022/03/05 13:33:11;;;;;;;;;;;;;;;5.99;65.53;100234.78;5014504;28;19924;-66
2022/03/05 13:35:55;;;;;;;;;;;;;;;5.98;65.79;100239.06;5015096;28;19967;-66
2022/03/05 13:38:39;;;;;;;;;;;;;;;5.99;65.68;100234.78;5014490;28;19940;-66
2022/03/05 13:41:26;;;;;;;;;;;;;;;5.99;65.61;100227.06;5014576;28;19921;-66
2022/03/05 13:44:36;;;;;;;;;;;;;;;5.97;65.62;100232.16;5015272;28;20095;-65
2022/03/05 13:47:20;;;;;;;;;;;;;;;5.99;65.81;100229.63;5014514;28;19924;-65
2022/03/05 13:50:04;;;;;;;;;;;;;;;5.99;65.61;100232.22;5015212;28;20384;-65
2022/03/05 13:52:52;;;;;;;;;;;;;;;6.00;65.93;100236.56;5015070;28;19939;-66
2022/03/05 13:55:36;;;;;;;;;;;;;;;5.99;65.98;100229.63;5014535;28;19967;-66
2022/03/05 13:58:23;;;;;;;;;;;;;;;5.99;66.07;100227.06;5014706;28;20398;-65
2022/03/05 14:01:14;;;;;;;;;;;;;;;6.00;66.38;100224.56;5014407;28;19924;-66
2022/03/05 14:04:12;;;;;;;;;;;;;;;5.99;65.93;100220.25;5014067;28;19925;-66
2022/03/05 14:07:00;;;;;;;;;;;;;;;6.04;65.88;100221.31;5013954;28;19929;-66
2022/03/05 14:09:44;;;;;;;;;;;;;;;6.06;65.94;100223.94;5014512;28;19924;-65
2022/03/05 14:12:29;;;;;;;;;;;;;;;6.04;66.17;100216.16;5014367;28;19940;-65
2022/03/05 14:15:13;;;;;;;;;;;;;;;6.03;65.70;100216.97;5013926;28;20427;-65
2022/03/05 14:18:10;;;;;;;;;;;;;;;6.01;66.01;100221.19;5015086;28;19963;-66
2022/03/05 14:20:54;;;;;;;;;;;;;;;6.00;65.84;100214.28;5013733;28;19924;-66
2022/03/05 14:23:41;;;;;;;;;;;;;;;6.00;65.73;100221.13;5014100;28;20010;-66
2022/03/05 14:26:31;;;;;;;;;;;;;;;5.99;65.97;100220.25;5013970;28;19964;-65